createdAt,value
2017-11-19T00:02:16.369Z,6.40
2017-11-19T00:04:43.859Z,6.40
2017-11-19T00:07:11.373Z,6.20
2017-11-19T00:09:38.884Z,6.20
2017-11-19T00:12:07.157Z,6.20
2017-11-19T00:14:35.421Z,6.10
2017-11-19T00:17:02.923Z,6.10
2017-11-19T00:19:30.420Z,6.10
2017-11-19T00:21:57.988Z,6.10
2017-11-19T00:24:25.483Z,6.10
2017-11-19T00:26:52.995Z,6.10
2017-11-19T00:29:20.517Z,6.10
2017-11-19T00:31:48.024Z,6.00
2017-11-19T00:34:15.521Z,5.90
2017-11-19T00:36:43.777Z,6.00
2017-11-19T00:39:12.067Z,6.00
2017-11-19T00:41:40.344Z,6.00
2017-11-19T00:44:08.613Z,6.00
2017-11-19T00:46:36.873Z,6.00
2017-11-19T00:49:05.164Z,6.00
2017-11-19T00:51:33.445Z,6.10
2017-11-19T00:54:01.713Z,6.10
2017-11-19T00:56:30.008Z,6.10
2017-11-19T00:58:58.284Z,6.10
2017-11-19T01:01:26.544Z,6.00
2017-11-19T01:03:54.826Z,6.10
2017-11-19T01:06:23.107Z,6.10
2017-11-19T01:08:51.389Z,6.10
2017-11-19T01:11:19.649Z,6.10
2017-11-19T01:13:47.936Z,6.00
2017-11-19T01:16:16.201Z,6.00
2017-11-19T01:18:44.465Z,6.00
2017-11-19T01:21:11.989Z,6.00
2017-11-19T01:23:39.489Z,5.90
2017-11-19T01:26:07.780Z,5.90
2017-11-19T01:28:36.061Z,6.00
2017-11-19T01:31:04.347Z,6.00
2017-11-19T01:33:31.844Z,5.90
2017-11-19T01:35:59.357Z,6.00
2017-11-19T01:38:26.864Z,6.00
2017-11-19T01:40:54.416Z,5.90
2017-11-19T01:43:21.904Z,5.90
2017-11-19T01:45:49.418Z,5.90
2017-11-19T01:48:16.925Z,5.90
2017-11-19T01:50:45.197Z,6.00
2017-11-19T01:53:12.697Z,6.00
2017-11-19T01:55:40.226Z,6.00
2017-11-19T01:58:08.493Z,6.00
2017-11-19T02:00:36.010Z,6.00
2017-11-19T02:03:03.521Z,6.00
2017-11-19T02:05:31.781Z,6.00
2017-11-19T02:07:59.276Z,6.00
2017-11-19T02:10:26.789Z,6.00
2017-11-19T02:12:54.306Z,6.00
2017-11-19T02:15:21.806Z,6.00
2017-11-19T02:17:49.309Z,6.00
2017-11-19T02:20:16.829Z,6.00
2017-11-19T02:22:44.346Z,5.90
2017-11-19T02:25:11.842Z,6.00
2017-11-19T02:27:39.372Z,5.90
2017-11-19T02:30:06.869Z,6.00
2017-11-19T02:32:34.368Z,5.90
2017-11-19T02:35:01.898Z,5.90
2017-11-19T02:37:30.186Z,5.90
2017-11-19T02:39:57.709Z,5.90
2017-11-19T02:42:25.218Z,6.00
2017-11-19T02:44:52.743Z,6.00
2017-11-19T02:47:20.243Z,6.00
2017-11-19T02:49:47.754Z,6.00
2017-11-19T02:52:15.256Z,6.00
2017-11-19T02:54:42.762Z,6.00
2017-11-19T02:57:10.350Z,6.00
2017-11-19T02:59:38.644Z,6.10
2017-11-19T03:02:06.158Z,6.10
2017-11-19T03:04:33.653Z,6.10
2017-11-19T03:07:01.918Z,6.00
2017-11-19T03:09:30.189Z,6.10
2017-11-19T03:11:58.452Z,6.10
2017-11-19T03:14:27.475Z,6.10
2017-11-19T03:16:55.738Z,6.10
2017-11-19T03:19:24.017Z,6.10
2017-11-19T03:21:52.309Z,6.10
2017-11-19T03:24:19.808Z,6.00
2017-11-19T03:26:47.313Z,6.10
2017-11-19T03:29:15.602Z,6.20
2017-11-19T03:31:43.101Z,6.20
2017-11-19T03:34:10.592Z,6.20
2017-11-19T03:36:38.097Z,6.10
2017-11-19T03:39:05.613Z,6.10
2017-11-19T03:41:33.908Z,6.10
2017-11-19T03:44:02.165Z,6.10
2017-11-19T03:46:30.440Z,6.10
2017-11-19T03:48:58.713Z,6.10
2017-11-19T03:51:26.233Z,6.10
2017-11-19T03:53:53.757Z,6.10
2017-11-19T03:56:21.258Z,6.10
2017-11-19T03:58:48.772Z,6.10
2017-11-19T04:01:17.037Z,6.10
2017-11-19T04:03:45.305Z,6.10
2017-11-19T04:06:13.599Z,6.10
2017-11-19T04:08:41.858Z,6.10
2017-11-19T04:11:10.120Z,6.00
2017-11-19T04:13:39.137Z,6.00
2017-11-19T04:16:07.401Z,6.00
2017-11-19T04:18:34.905Z,6.00
2017-11-19T04:21:02.424Z,5.90
2017-11-19T04:23:30.696Z,6.00
2017-11-19T04:25:58.957Z,6.00
2017-11-19T04:28:26.466Z,6.00
2017-11-19T04:30:53.964Z,6.10
2017-11-19T04:33:21.469Z,6.10
2017-11-19T04:35:48.970Z,6.10
2017-11-19T04:38:16.484Z,6.10
2017-11-19T04:40:43.992Z,6.10
2017-11-19T04:43:11.510Z,6.10
2017-11-19T04:45:39.032Z,6.00
2017-11-19T04:48:06.533Z,6.00
2017-11-19T04:50:34.033Z,6.10
2017-11-19T04:53:01.565Z,6.00
2017-11-19T04:55:29.057Z,6.10
2017-11-19T04:57:56.580Z,6.10
2017-11-19T05:00:24.119Z,6.10
2017-11-19T05:02:51.632Z,6.10
2017-11-19T05:05:19.150Z,6.10
2017-11-19T05:07:46.644Z,6.10
2017-11-19T05:10:14.165Z,6.00
2017-11-19T05:12:41.684Z,6.00
2017-11-19T05:15:09.974Z,6.00
2017-11-19T05:17:38.258Z,6.10
2017-11-19T05:20:05.778Z,6.10
2017-11-19T05:22:33.298Z,5.90
2017-11-19T05:25:00.796Z,6.00
2017-11-19T05:27:28.292Z,6.00
2017-11-19T05:29:55.790Z,6.00
2017-11-19T05:32:23.288Z,6.00
2017-11-19T05:34:51.572Z,6.00
2017-11-19T05:37:19.085Z,6.00
2017-11-19T05:39:46.599Z,6.00
2017-11-19T05:42:14.857Z,6.00
2017-11-19T05:44:43.147Z,6.00
2017-11-19T05:47:11.433Z,6.00
2017-11-19T05:49:38.937Z,6.00
2017-11-19T05:52:06.455Z,6.00
2017-11-19T05:54:34.285Z,6.00
2017-11-19T05:57:01.809Z,6.00
2017-11-19T05:59:29.313Z,6.00
2017-11-19T06:01:57.585Z,6.10
2017-11-19T06:04:25.868Z,6.10
2017-11-19T06:06:54.149Z,6.10
2017-11-19T06:09:22.436Z,6.20
2017-11-19T06:11:49.937Z,6.10
2017-11-19T06:14:17.432Z,6.20
2017-11-19T06:16:45.727Z,6.20
2017-11-19T06:19:13.225Z,6.20
2017-11-19T06:21:40.732Z,6.20
2017-11-19T06:24:09.016Z,6.10
2017-11-19T06:26:37.288Z,6.10
2017-11-19T06:29:05.550Z,6.10
2017-11-19T06:31:33.062Z,6.10
2017-11-19T06:34:00.563Z,6.10
2017-11-19T06:36:28.065Z,6.10
2017-11-19T06:38:55.580Z,6.10
2017-11-19T06:41:23.093Z,6.10
2017-11-19T06:43:50.604Z,6.10
2017-11-19T06:46:18.885Z,6.10
2017-11-19T06:48:47.160Z,6.10
2017-11-19T06:51:15.457Z,6.20
2017-11-19T06:53:43.109Z,6.20
2017-11-19T06:56:11.376Z,6.20
2017-11-19T06:58:39.645Z,6.10
2017-11-19T07:01:07.928Z,6.20
2017-11-19T07:03:36.208Z,6.20
2017-11-19T07:06:04.484Z,6.30
2017-11-19T07:08:32.829Z,6.30
2017-11-19T07:11:00.357Z,6.30
2017-11-19T07:13:27.871Z,6.30
2017-11-19T07:15:56.137Z,6.40
2017-11-19T07:18:24.410Z,6.40
2017-11-19T07:20:52.710Z,6.30
2017-11-19T07:23:21.925Z,6.40
2017-11-19T07:25:49.438Z,6.40
2017-11-19T07:28:16.946Z,6.40
2017-11-19T07:30:44.449Z,6.30
2017-11-19T07:33:11.962Z,6.30
2017-11-19T07:35:39.469Z,6.40
2017-11-19T07:38:06.990Z,6.40
2017-11-19T07:40:34.506Z,6.30
2017-11-19T07:43:02.787Z,6.30
2017-11-19T07:45:31.053Z,6.30
2017-11-19T07:47:58.559Z,6.30
2017-11-19T07:50:26.064Z,6.30
2017-11-19T07:52:53.579Z,6.40
2017-11-19T07:55:21.100Z,6.40
2017-11-19T07:57:49.368Z,6.40
2017-11-19T08:00:17.656Z,6.40
2017-11-19T08:02:45.940Z,6.30
2017-11-19T08:05:14.204Z,6.30
2017-11-19T08:07:42.484Z,6.30
2017-11-19T08:10:10.757Z,6.30
2017-11-19T08:12:39.020Z,6.20
2017-11-19T08:15:06.540Z,6.30
2017-11-19T08:17:34.049Z,6.20
2017-11-19T08:20:02.321Z,6.30
2017-11-19T08:22:30.596Z,6.20
2017-11-19T08:24:58.877Z,6.20
2017-11-19T08:27:27.147Z,6.10
2017-11-19T08:29:55.510Z,6.10
2017-11-19T08:32:23.005Z,6.10
2017-11-19T08:34:50.497Z,6.10
2017-11-19T08:37:18.003Z,6.10
2017-11-19T08:39:46.277Z,6.10
2017-11-19T08:42:13.770Z,6.10
2017-11-19T08:44:41.268Z,6.10
2017-11-19T08:47:08.781Z,6.20
2017-11-19T08:49:36.297Z,6.10
2017-11-19T08:52:03.807Z,6.00
2017-11-19T08:54:31.300Z,6.00
2017-11-19T08:56:58.793Z,6.00
2017-11-19T08:59:27.062Z,5.90
2017-11-19T09:01:55.325Z,6.00
2017-11-19T09:04:22.822Z,6.00
2017-11-19T09:06:50.313Z,6.00
2017-11-19T09:09:17.824Z,5.80
2017-11-19T09:11:46.090Z,5.80
2017-11-19T09:14:14.358Z,5.80
2017-11-19T09:16:41.869Z,5.80
2017-11-19T09:19:09.368Z,5.80
2017-11-19T09:21:36.874Z,5.80
2017-11-19T09:24:04.389Z,5.80
2017-11-19T09:26:31.884Z,5.80
2017-11-19T09:28:59.381Z,5.80
2017-11-19T09:31:26.890Z,5.80
2017-11-19T09:33:55.152Z,5.90
2017-11-19T09:36:23.413Z,6.00
2017-11-19T09:38:50.920Z,5.90
2017-11-19T09:41:18.408Z,6.00
2017-11-19T09:43:45.915Z,6.00
2017-11-19T09:46:14.188Z,6.00
2017-11-19T09:48:42.445Z,5.90
2017-11-19T09:51:10.700Z,5.90
2017-11-19T09:53:38.213Z,5.90
2017-11-19T09:56:05.713Z,5.90
2017-11-19T09:58:33.212Z,5.90
2017-11-19T10:01:01.495Z,5.90
2017-11-19T10:03:29.774Z,6.00
2017-11-19T10:05:57.271Z,6.00
2017-11-19T10:08:24.777Z,6.10
2017-11-19T10:10:53.323Z,6.20
2017-11-19T10:13:20.818Z,6.20
2017-11-19T10:15:49.101Z,6.20
2017-11-19T10:18:17.396Z,6.20
2017-11-19T10:20:44.967Z,6.10
2017-11-19T10:23:12.545Z,6.10
2017-11-19T10:25:40.125Z,6.20
2017-11-19T10:28:07.747Z,6.20
2017-11-19T10:30:35.355Z,6.20
2017-11-19T10:33:03.647Z,6.00
2017-11-19T10:35:31.994Z,6.00
2017-11-19T10:37:59.537Z,6.00
2017-11-19T10:40:29.097Z,5.90
2017-11-19T10:42:57.353Z,5.80
2017-11-19T10:45:24.853Z,5.80
2017-11-19T10:47:52.365Z,5.80
2017-11-19T10:50:19.857Z,5.80
2017-11-19T10:52:48.149Z,5.80
2017-11-19T10:55:15.651Z,5.80
2017-11-19T10:57:43.155Z,5.70
2017-11-19T11:00:10.658Z,5.70
2017-11-19T11:02:38.165Z,5.60
2017-11-19T11:05:06.445Z,5.70
2017-11-19T11:07:33.936Z,5.70
2017-11-19T11:10:01.436Z,5.70
2017-11-19T11:12:29.701Z,5.70
2017-11-19T11:14:57.188Z,5.70
2017-11-19T11:17:24.696Z,5.70
2017-11-19T11:19:52.185Z,5.70
2017-11-19T11:22:19.697Z,5.70
2017-11-19T11:24:47.252Z,5.60
2017-11-19T11:27:14.758Z,5.60
2017-11-19T11:29:42.265Z,5.60
2017-11-19T11:32:09.779Z,5.70
2017-11-19T11:34:38.051Z,5.90
2017-11-19T11:37:05.545Z,5.80
2017-11-19T11:39:33.041Z,5.80
2017-11-19T11:42:00.540Z,5.80
2017-11-19T11:44:28.796Z,5.80
2017-11-19T11:46:56.300Z,5.80
2017-11-19T11:49:23.789Z,5.90
2017-11-19T11:51:51.283Z,5.80
2017-11-19T11:54:19.545Z,5.80
2017-11-19T11:56:47.045Z,5.80
2017-11-19T11:59:14.542Z,5.90
2017-11-19T12:01:42.034Z,5.90
2017-11-19T12:04:10.313Z,6.10
2017-11-19T12:06:38.569Z,6.20
2017-11-19T12:09:06.068Z,6.10
2017-11-19T12:11:33.569Z,6.20
2017-11-19T12:14:01.082Z,6.10
2017-11-19T12:16:28.588Z,6.10
2017-11-19T12:18:56.095Z,6.20
2017-11-19T12:21:23.598Z,6.20
2017-11-19T12:23:51.097Z,6.20
2017-11-19T12:26:19.359Z,6.30
2017-11-19T12:28:46.866Z,6.20
2017-11-19T12:31:14.377Z,6.30
2017-11-19T12:33:41.869Z,6.30
2017-11-19T12:36:09.381Z,6.40
2017-11-19T12:38:36.878Z,6.50
2017-11-19T12:41:04.385Z,6.40
2017-11-19T12:43:31.883Z,6.40
2017-11-19T12:46:00.147Z,6.20
2017-11-19T12:48:27.633Z,6.20
2017-11-19T12:50:55.148Z,6.00
2017-11-19T12:53:22.668Z,6.00
2017-11-19T12:55:50.157Z,5.90
2017-11-19T12:58:17.664Z,5.80
2017-11-19T13:00:45.177Z,5.80
2017-11-19T13:03:12.669Z,5.70
2017-11-19T13:05:40.979Z,5.80
2017-11-19T13:08:08.472Z,5.80
2017-11-19T13:10:35.965Z,5.90
2017-11-19T13:13:04.245Z,5.80
2017-11-19T13:15:32.516Z,5.90
2017-11-19T13:18:00.941Z,5.80
2017-11-19T13:20:28.445Z,5.70
2017-11-19T13:22:55.939Z,5.70
2017-11-19T13:25:23.478Z,5.70
2017-11-19T13:27:50.997Z,5.70
2017-11-19T13:30:18.493Z,5.70
2017-11-19T13:32:46.761Z,5.70
2017-11-19T13:35:15.037Z,5.70
2017-11-19T13:37:43.307Z,5.70
2017-11-19T13:40:21.912Z,5.60
2017-11-19T13:42:49.401Z,5.60
2017-11-19T13:45:17.685Z,5.60
2017-11-19T13:47:45.193Z,5.60
2017-11-19T13:50:12.700Z,5.70
2017-11-19T13:52:40.204Z,5.70
2017-11-19T13:55:07.696Z,5.70
2017-11-19T13:57:35.957Z,5.50
2017-11-19T14:00:03.453Z,5.50
2017-11-19T14:02:31.042Z,5.60
2017-11-19T14:04:58.533Z,5.50
2017-11-19T14:07:26.812Z,5.50
2017-11-19T14:09:54.313Z,5.50
2017-11-19T14:12:21.821Z,5.60
2017-11-19T14:14:49.329Z,5.50
2017-11-19T14:17:16.820Z,5.50
2017-11-19T14:19:44.330Z,5.50
2017-11-19T14:22:12.585Z,5.20
2017-11-19T14:24:40.861Z,5.20
2017-11-19T14:27:08.363Z,5.10
2017-11-19T14:29:35.862Z,5.30
2017-11-19T14:32:03.348Z,5.30
2017-11-19T14:34:31.605Z,5.50
2017-11-19T14:36:59.124Z,5.50
2017-11-19T14:39:26.626Z,5.40
2017-11-19T14:41:54.923Z,5.40
2017-11-19T14:44:23.178Z,5.50
2017-11-19T14:46:50.674Z,5.50
2017-11-19T14:49:18.174Z,5.50
2017-11-19T14:51:45.670Z,5.60
2017-11-19T14:54:13.935Z,5.70
2017-11-19T14:56:42.218Z,5.70
2017-11-19T14:59:10.476Z,5.70
2017-11-19T15:01:37.981Z,5.70
2017-11-19T15:04:05.516Z,5.60
2017-11-19T15:06:33.800Z,5.70
2017-11-19T15:09:02.066Z,5.60
2017-11-19T15:11:29.598Z,5.60
2017-11-19T15:13:57.124Z,5.60
2017-11-19T15:16:24.614Z,5.60
2017-11-19T15:18:52.097Z,5.60
2017-11-19T15:21:20.363Z,5.40
2017-11-19T15:23:48.649Z,5.40
2017-11-19T15:26:16.913Z,5.30
2017-11-19T15:28:44.408Z,5.20
2017-11-19T15:31:11.914Z,5.30
2017-11-19T15:33:39.405Z,5.20
2017-11-19T15:36:07.668Z,5.30
2017-11-19T15:38:35.164Z,5.20
2017-11-19T15:41:02.665Z,5.20
2017-11-19T15:43:30.182Z,5.30
2017-11-19T15:45:57.672Z,5.40
2017-11-19T15:48:25.161Z,5.30
2017-11-19T15:50:53.431Z,5.30
2017-11-19T15:53:20.949Z,5.30
2017-11-19T15:55:48.457Z,5.30
2017-11-19T15:58:16.717Z,5.30
2017-11-19T16:00:44.226Z,5.30
2017-11-19T16:03:11.749Z,5.30
2017-11-19T16:05:40.008Z,5.40
2017-11-19T16:08:08.384Z,5.30
2017-11-19T16:10:35.881Z,5.30
2017-11-19T16:13:03.390Z,5.40
2017-11-19T16:15:30.907Z,5.40
2017-11-19T16:17:58.421Z,5.30
2017-11-19T16:20:26.684Z,5.30
2017-11-19T16:22:54.188Z,5.30
2017-11-19T16:25:21.700Z,5.30
2017-11-19T16:27:49.193Z,5.20
2017-11-19T16:30:17.460Z,5.30
2017-11-19T16:32:44.973Z,5.30
2017-11-19T16:35:12.464Z,5.30
2017-11-19T16:37:39.961Z,5.20
2017-11-19T16:40:07.453Z,5.30
2017-11-19T16:42:34.977Z,5.30
2017-11-19T16:45:02.497Z,5.40
2017-11-19T16:47:30.002Z,5.30
2017-11-19T16:49:57.502Z,5.30
2017-11-19T16:52:25.005Z,5.30
2017-11-19T16:54:53.265Z,5.20
2017-11-19T16:57:21.541Z,5.20
2017-11-19T16:59:49.822Z,5.20
2017-11-19T17:02:27.117Z,5.10
2017-11-19T17:04:54.671Z,5.10
2017-11-19T17:07:22.951Z,5.10
2017-11-19T17:09:51.228Z,5.20
2017-11-19T17:12:19.512Z,5.30
2017-11-19T17:14:47.769Z,5.20
2017-11-19T17:17:16.033Z,5.30
2017-11-19T17:19:43.524Z,5.30
2017-11-19T17:22:11.025Z,5.30
2017-11-19T17:24:38.526Z,5.30
2017-11-19T17:27:06.800Z,5.40
2017-11-19T17:29:35.073Z,5.40
2017-11-19T17:32:03.336Z,5.40
2017-11-19T17:34:30.845Z,5.40
2017-11-19T17:36:58.365Z,5.30
2017-11-19T17:39:26.628Z,5.30
2017-11-19T17:41:54.141Z,5.30
2017-11-19T17:44:21.628Z,5.20
2017-11-19T17:46:49.121Z,5.20
2017-11-19T17:49:17.391Z,5.10
2017-11-19T17:51:45.656Z,5.10
2017-11-19T17:54:13.160Z,5.10
2017-11-19T17:56:40.681Z,5.20
2017-11-19T17:59:08.942Z,5.10
2017-11-19T18:01:37.941Z,5.10
2017-11-19T18:04:05.429Z,5.10
2017-11-19T18:06:33.685Z,5.20
2017-11-19T18:09:01.193Z,5.20
2017-11-19T18:11:28.681Z,5.20
2017-11-19T18:13:56.195Z,5.20
2017-11-19T18:16:23.698Z,5.20
2017-11-19T18:18:51.205Z,5.20
2017-11-19T18:21:18.708Z,5.30
2017-11-19T18:23:46.221Z,5.30
2017-11-19T18:26:13.728Z,5.30
2017-11-19T18:28:41.218Z,5.30
2017-11-19T18:31:09.492Z,5.20
2017-11-19T18:33:37.761Z,5.10
2017-11-19T18:36:05.275Z,5.00
2017-11-19T18:38:32.777Z,5.10
2017-11-19T18:41:00.269Z,5.10
2017-11-19T18:43:27.772Z,5.00
2017-11-19T18:45:55.295Z,5.00
2017-11-19T18:48:22.865Z,5.00
2017-11-19T18:50:50.385Z,5.00
2017-11-19T18:53:18.644Z,5.00
2017-11-19T18:55:46.138Z,5.00
2017-11-19T18:58:13.645Z,5.00
2017-11-19T19:00:41.140Z,5.00
2017-11-19T19:03:09.397Z,5.00
2017-11-19T19:05:38.412Z,5.00
2017-11-19T19:08:06.713Z,5.10
2017-11-19T19:10:34.209Z,5.10
2017-11-19T19:13:01.722Z,5.10
2017-11-19T19:15:29.220Z,5.10
2017-11-19T19:17:56.740Z,5.10
2017-11-19T19:20:24.248Z,5.10
2017-11-19T19:22:51.749Z,5.10
2017-11-19T19:25:19.249Z,5.10
2017-11-19T19:27:46.885Z,5.00
2017-11-19T19:30:14.377Z,5.10
2017-11-19T19:32:41.898Z,5.00
2017-11-19T19:35:09.400Z,5.10
2017-11-19T19:37:37.036Z,5.10
2017-11-19T19:40:04.652Z,5.10
2017-11-19T19:42:32.285Z,5.10
2017-11-19T19:45:00.686Z,5.10
2017-11-19T19:47:28.245Z,5.00
2017-11-19T19:49:56.651Z,4.90
2017-11-19T19:52:24.160Z,4.90
2017-11-19T19:54:51.664Z,4.90
2017-11-19T19:57:19.175Z,5.00
2017-11-19T19:59:46.772Z,5.00
2017-11-19T20:02:14.379Z,4.90
2017-11-19T20:04:41.965Z,5.00
2017-11-19T20:07:10.353Z,5.00
2017-11-19T20:09:38.715Z,5.00
2017-11-19T20:12:07.783Z,4.90
2017-11-19T20:14:35.418Z,4.90
2017-11-19T20:17:03.028Z,4.90
2017-11-19T20:19:31.420Z,5.00
2017-11-19T20:21:59.858Z,5.00
2017-11-19T20:24:27.494Z,4.90
2017-11-19T20:26:55.126Z,5.00
2017-11-19T20:29:23.509Z,5.00
2017-11-19T20:31:51.888Z,5.00
2017-11-19T20:34:20.255Z,5.00
2017-11-19T20:36:48.101Z,5.00
2017-11-19T20:39:15.739Z,5.10
2017-11-19T20:41:43.324Z,5.10
2017-11-19T20:44:11.690Z,5.10
2017-11-19T20:46:39.298Z,5.10
2017-11-19T20:49:07.698Z,5.20
2017-11-19T20:51:35.328Z,5.20
2017-11-19T20:54:03.643Z,5.30
2017-11-19T20:56:31.417Z,5.30
2017-11-19T20:58:59.042Z,5.30
2017-11-19T21:01:27.458Z,5.30
2017-11-19T21:03:55.053Z,5.30
2017-11-19T21:06:22.693Z,5.30
2017-11-19T21:08:50.317Z,5.30
2017-11-19T21:11:17.942Z,5.40
2017-11-19T21:13:45.553Z,5.40
2017-11-19T21:16:13.151Z,5.30
2017-11-19T21:18:40.884Z,5.30
2017-11-19T21:21:08.497Z,5.30
2017-11-19T21:23:36.870Z,5.30
2017-11-19T21:26:04.498Z,5.30
2017-11-19T21:28:32.109Z,5.20
2017-11-19T21:31:00.489Z,5.20
2017-11-19T21:33:28.864Z,5.30
2017-11-19T21:35:57.249Z,5.30
2017-11-19T21:38:25.637Z,5.20
2017-11-19T21:40:53.251Z,5.20
2017-11-19T21:43:20.756Z,5.30
2017-11-19T21:45:49.017Z,5.20
2017-11-19T21:48:16.503Z,5.20
2017-11-19T21:50:44.017Z,5.20
2017-11-19T21:53:11.535Z,5.30
2017-11-19T21:55:39.032Z,5.20
2017-11-19T21:58:06.525Z,5.10
2017-11-19T22:00:34.787Z,5.00
2017-11-19T22:03:03.048Z,5.10
2017-11-19T22:05:30.569Z,5.10
2017-11-19T22:07:58.060Z,5.10
2017-11-19T22:10:25.564Z,5.10
2017-11-19T22:12:53.065Z,5.10
2017-11-19T22:15:20.564Z,5.10
2017-11-19T22:17:48.840Z,4.90
2017-11-19T22:20:17.115Z,5.00
2017-11-19T22:22:45.391Z,4.90
2017-11-19T22:25:13.645Z,4.90
2017-11-19T22:27:41.140Z,4.90
2017-11-19T22:30:08.912Z,4.90
2017-11-19T22:32:36.423Z,4.80
2017-11-19T22:35:03.934Z,4.80
2017-11-19T22:37:31.429Z,4.80
2017-11-19T22:39:58.940Z,4.90
2017-11-19T22:42:26.452Z,4.90
2017-11-19T22:44:53.955Z,4.80
2017-11-19T22:47:21.445Z,4.80
2017-11-19T22:49:48.957Z,4.70
2017-11-19T22:52:17.221Z,4.80
2017-11-19T22:54:44.728Z,4.80
2017-11-19T22:57:12.216Z,4.80
2017-11-19T22:59:39.708Z,4.80
2017-11-19T23:02:07.965Z,4.80
2017-11-19T23:04:35.456Z,4.80
2017-11-19T23:07:02.954Z,4.80
2017-11-19T23:09:30.445Z,4.80
2017-11-19T23:11:58.728Z,4.80
2017-11-19T23:14:26.992Z,4.90
2017-11-19T23:16:54.500Z,4.90
2017-11-19T23:19:22.027Z,4.90
2017-11-19T23:21:50.293Z,5.00
2017-11-19T23:24:17.784Z,5.00
2017-11-19T23:26:45.272Z,5.10
2017-11-19T23:29:12.784Z,5.10
2017-11-19T23:31:41.061Z,5.20
2017-11-19T23:34:09.352Z,5.30
2017-11-19T23:36:36.875Z,5.20
2017-11-19T23:39:05.290Z,5.30
2017-11-19T23:41:32.797Z,5.20
2017-11-19T23:44:00.336Z,5.30
2017-11-19T23:46:27.827Z,5.30
2017-11-19T23:48:55.319Z,5.30
2017-11-19T23:51:22.813Z,5.30
2017-11-19T23:53:50.305Z,5.30
2017-11-19T23:56:17.796Z,5.30
2017-11-19T23:58:45.424Z,5.20
